Time;durP1;ratioP1;P1;durP2;ratioP2;P2;SDS_P1;SDS_P2;PMS_P1;PMS_P2;Temp;Humidity;BMP_temperature;BMP_pressure;BME280_temperature;BME280_humidity;BME280_pressure;Samples;Min_cycle;Max_cycle;Signal;HPM_P1;HPM_P2
2021/10/12 00:02:23;;;;;;;43.63;27.93;;;;;;;9.28;100.00;101100.00;1654943;85;21017;-84
2021/10/12 00:04:50;;;;;;;36.38;26.10;;;;;;;9.20;100.00;101095.75;1655002;85;21089;-84
2021/10/12 00:07:18;;;;;;;34.53;26.20;;;;;;;9.11;100.00;101097.16;1654984;85;21977;-84
2021/10/12 00:09:46;;;;;;;37.45;24.63;;;;;;;9.02;100.00;101101.61;1715862;83;21161;-85
2021/10/12 00:12:14;;;;;;;36.55;24.70;;;;;;;8.94;100.00;101096.87;1698021;82;20986;-84
2021/10/12 00:14:42;;;;;;;39.95;24.37;;;;;;;8.89;100.00;101099.77;1716225;82;21053;-84
2021/10/12 00:17:12;;;;;;;28.60;20.55;;;;;;;8.84;100.00;101094.85;1698440;83;21061;-84
2021/10/12 00:19:40;;;;;;;30.95;20.20;;;;;;;8.80;100.00;101089.45;1716363;82;21115;-84
2021/10/12 00:22:10;;;;;;;28.35;19.32;;;;;;;8.75;100.00;101088.91;1716286;82;21110;-84
2021/10/12 00:24:38;;;;;;;29.45;19.85;;;;;;;8.72;100.00;101089.55;1716525;82;21096;-83
2021/10/12 00:27:06;;;;;;;32.70;21.10;;;;;;;8.71;100.00;101091.30;1716561;82;20989;-83
2021/10/12 00:29:36;;;;;;;37.48;21.80;;;;;;;8.71;100.00;101079.62;1675014;83;21570;-83
2021/10/12 00:32:04;;;;;;;29.12;21.52;;;;;;;8.79;100.00;101082.59;1716390;82;21029;-83
2021/10/12 00:34:32;;;;;;;35.40;21.65;;;;;;;8.90;100.00;101077.22;1716426;82;21181;-84
2021/10/12 00:36:59;;;;;;;40.60;22.77;;;;;;;9.00;100.00;101078.34;1716594;82;21496;-84
2021/10/12 00:39:27;;;;;;;33.80;23.52;;;;;;;9.10;100.00;101078.13;1716196;82;21590;-83
2021/10/12 00:41:59;;;;;;;37.15;24.52;;;;;;;9.17;100.00;101072.09;1714137;83;21123;-85
2021/10/12 00:44:27;;;;;;;36.08;22.82;;;;;;;9.22;100.00;101066.61;1715947;82;21135;-84
2021/10/12 00:46:54;;;;;;;38.38;22.75;;;;;;;9.24;100.00;101064.28;1673297;83;21083;-84
2021/10/12 00:49:23;;;;;;;36.30;23.12;;;;;;;9.24;100.00;101064.28;1716391;82;21085;-84
2021/10/12 00:51:50;;;;;;;48.98;22.87;;;;;;;9.27;100.00;101068.45;1716365;82;21132;-84
2021/10/12 00:54:18;;;;;;;32.28;22.52;;;;;;;9.27;100.00;101067.15;1698148;82;21171;-84
2021/10/12 00:56:46;;;;;;;43.80;23.30;;;;;;;9.27;100.00;101071.90;1716329;82;21602;-84
2021/10/12 00:59:14;;;;;;;35.20;22.90;;;;;;;9.26;100.00;101074.57;1716104;82;21621;-84
2021/10/12 01:01:42;;;;;;;31.68;23.38;;;;;;;9.27;100.00;101073.20;1716527;82;21064;-84
2021/10/12 01:04:10;;;;;;;37.28;22.98;;;;;;;9.28;100.00;101068.82;1716495;82;21082;-84
2021/10/12 01:06:38;;;;;;;39.30;23.27;;;;;;;9.28;100.00;101059.73;1716277;82;21065;-84
2021/10/12 01:09:06;;;;;;;31.05;21.68;;;;;;;9.29;100.00;101061.40;1716848;82;21574;-84
2021/10/12 01:11:35;;;;;;;31.20;22.13;;;;;;;9.28;100.00;101059.73;1716359;82;21029;-85
2021/10/12 01:14:04;;;;;;;39.67;23.90;;;;;;;9.30;100.00;101059.17;1716281;82;21037;-84
2021/10/12 01:16:32;;;;;;;31.73;20.82;;;;;;;9.30;100.00;101053.97;1716596;82;21057;-84
2021/10/12 01:19:03;;;;;;;29.42;20.15;;;;;;;9.30;100.00;101058.69;1698636;83;22474;-84
2021/10/12 01:21:42;;;;;;;30.05;20.85;;;;;;;9.28;100.00;101052.78;1716662;82;21101;-85
2021/10/12 01:24:10;;;;;;;50.00;22.90;;;;;;;9.23;100.00;101055.29;1715722;83;21782;-83
2021/10/12 01:26:41;;;;;;;28.60;20.40;;;;;;;9.22;100.00;101049.24;1716659;82;21050;-84
2021/10/12 01:29:12;;;;;;;33.30;20.15;;;;;;;9.25;100.00;101051.66;1699022;83;21579;-84
2021/10/12 01:31:43;;;;;;;28.38;18.62;;;;;;;9.28;100.00;101050.63;1716259;82;21053;-85
2021/10/12 01:34:20;;;;;;;30.25;19.30;;;;;;;9.24;100.00;101050.47;1716955;82;21056;-84
2021/10/12 01:36:49;;;;;;;25.25;18.95;;;;;;;9.22;100.00;101054.92;1716573;83;21136;-84
2021/10/12 01:39:18;;;;;;;37.08;19.70;;;;;;;9.22;100.00;101051.84;1698903;83;21072;-84
2021/10/12 01:41:46;;;;;;;28.87;20.68;;;;;;;9.24;100.00;101051.28;1712788;82;21681;-84
2021/10/12 01:44:17;;;;;;;29.48;21.00;;;;;;;9.26;100.00;101043.39;1716678;82;21873;-85
2021/10/12 01:46:45;;;;;;;27.45;20.35;;;;;;;9.25;100.00;101041.74;1716962;82;21535;-84
2021/10/12 01:49:13;;;;;;;32.53;20.90;;;;;;;9.25;100.00;101041.74;1716894;82;21753;-84
2021/10/12 01:51:40;;;;;;;34.98;21.97;;;;;;;9.23;100.00;101041.82;1716206;82;21036;-85
2021/10/12 01:54:23;;;;;;;35.85;20.95;;;;;;;9.22;100.00;101042.75;1716952;82;21078;-84
2021/10/12 01:56:53;;;;;;;35.90;21.23;;;;;;;9.21;100.00;101041.55;1712541;82;21053;-84
2021/10/12 01:59:21;;;;;;;25.85;19.70;;;;;;;9.19;100.00;101038.20;1713346;82;21622;-84
2021/10/12 02:01:49;;;;;;;27.35;19.77;;;;;;;9.16;100.00;101039.24;1698607;83;21255;-84
2021/10/12 02:04:16;;;;;;;25.35;18.50;;;;;;;9.12;100.00;101037.30;1698232;83;21112;-84
2021/10/12 02:06:43;;;;;;;37.03;19.30;;;;;;;9.09;100.00;101032.28;1698853;83;21532;-84
2021/10/12 02:09:11;;;;;;;31.70;20.32;;;;;;;9.01;100.00;101029.36;1682634;83;21097;-84
2021/10/12 02:11:40;;;;;;;24.82;18.77;;;;;;;9.02;100.00;101034.07;1682861;84;21038;-84
2021/10/12 02:14:07;;;;;;;37.53;19.65;;;;;;;9.05;100.00;101027.40;1698937;83;21129;-84
2021/10/12 02:16:34;;;;;;;41.63;20.97;;;;;;;9.07;100.00;101031.56;1698873;83;21015;-84
2021/10/12 02:19:02;;;;;;;33.55;18.57;;;;;;;9.06;100.00;101028.59;1697270;83;21610;-84
2021/10/12 02:21:29;;;;;;;30.72;19.00;;;;;;;9.04;100.00;101027.03;1698448;83;21148;-83
2021/10/12 02:23:59;;;;;;;25.20;18.60;;;;;;;9.02;100.00;101027.10;1698776;83;21523;-83
2021/10/12 02:26:27;;;;;;;29.07;18.20;;;;;;;9.02;100.00;101027.58;1699166;83;21098;-84
2021/10/12 02:28:54;;;;;;;21.27;17.23;;;;;;;9.00;100.00;101026.38;1698890;84;21050;-84
2021/10/12 02:31:21;;;;;;;32.67;19.60;;;;;;;8.97;100.00;101021.37;1699009;83;21027;-84
2021/10/12 02:33:49;;;;;;;24.07;18.67;;;;;;;8.95;100.00;101016.72;1698428;83;21085;-84
2021/10/12 02:36:17;;;;;;;25.20;18.77;;;;;;;8.92;100.00;101012.56;1698991;83;21069;-83
2021/10/12 02:38:45;;;;;;;25.62;18.52;;;;;;;8.93;100.00;101012.11;1698915;83;21132;-84
2021/10/12 02:41:12;;;;;;;43.65;19.02;;;;;;;8.94;100.00;101008.56;1698897;83;21082;-84
2021/10/12 02:43:40;;;;;;;24.63;18.92;;;;;;;8.96;100.00;101009.30;1698620;83;21049;-84
2021/10/12 02:46:08;;;;;;;24.05;18.42;;;;;;;8.99;100.00;101006.53;1683254;84;21599;-83
2021/10/12 02:48:35;;;;;;;24.43;17.92;;;;;;;9.01;100.00;101000.78;1698700;83;21062;-84
2021/10/12 02:51:03;;;;;;;22.65;16.87;;;;;;;9.04;100.00;101001.87;1699130;83;21148;-84
2021/10/12 02:53:30;;;;;;;22.67;17.60;;;;;;;9.06;100.00;100997.87;1698805;83;21089;-83
2021/10/12 02:55:58;;;;;;;27.17;18.37;;;;;;;9.06;100.00;100993.52;1699168;83;21039;-83
2021/10/12 02:58:25;;;;;;;24.80;17.85;;;;;;;9.04;100.00;100996.67;1698517;83;21500;-83
2021/10/12 03:00:54;;;;;;;21.87;17.35;;;;;;;9.00;100.00;100993.91;1697767;81;21077;-84
2021/10/12 03:03:22;;;;;;;24.52;17.52;;;;;;;8.89;100.00;100991.14;1729669;81;21129;-84
2021/10/12 03:05:50;;;;;;;27.02;19.07;;;;;;;8.80;100.00;100984.77;1729714;81;21475;-82
2021/10/12 03:08:19;;;;;;;34.20;20.70;;;;;;;8.73;100.00;100987.38;1702101;81;21106;-83
2021/10/12 03:10:55;;;;;;;45.30;23.05;;;;;;;8.60;100.00;100985.98;1728300;81;21511;-87
2021/10/12 03:13:26;;;;;;;36.98;20.57;;;;;;;8.47;100.00;100984.59;1723712;81;21547;-86
2021/10/12 03:15:55;;;;;;;37.00;19.85;;;;;;;8.41;100.00;100991.42;1722260;81;21209;-85
2021/10/12 03:18:23;;;;;;;37.35;20.02;;;;;;;8.41;100.00;100990.13;1712339;82;21080;-86
2021/10/12 03:20:53;;;;;;;35.00;21.07;;;;;;;8.44;100.00;100980.39;1711647;81;21084;-93
2021/10/12 03:23:21;;;;;;;36.38;20.62;;;;;;;8.48;100.00;100977.19;1711939;82;21065;-91
2021/10/12 03:25:48;;;;;;;40.58;20.95;;;;;;;8.56;100.00;100974.11;1711649;82;21172;-94
2021/10/12 03:28:15;;;;;;;46.40;22.50;;;;;;;8.66;100.00;100972.63;1711732;82;21142;-89
2021/10/12 03:30:43;;;;;;;47.38;23.35;;;;;;;8.81;100.00;100972.16;1726327;81;21040;-92
2021/10/12 03:33:11;;;;;;;50.63;23.90;;;;;;;8.92;100.00;100970.19;1715245;81;21069;-93
2021/10/12 03:35:45;;;;;;;60.70;26.48;;;;;;;9.02;100.00;100975.15;1741013;81;21010;-88
2021/10/12 03:38:07;;;;;;;61.40;22.73;;;;;;;9.08;100.00;100973.48;1737495;81;21787;-88
2021/10/12 03:40:37;;;;;;;33.75;20.85;;;;;;;9.06;100.00;100969.30;1740835;81;21162;-87
2021/10/12 03:43:04;;;;;;;40.40;20.90;;;;;;;8.98;100.00;100968.02;1740993;81;21118;-85
2021/10/12 03:45:32;;;;;;;33.78;20.12;;;;;;;8.92;100.00;100968.88;1740735;81;21096;-87
2021/10/12 03:47:59;;;;;;;27.60;19.05;;;;;;;8.84;100.00;100964.16;1736064;80;21016;-87
2021/10/12 03:50:28;;;;;;;29.23;18.65;;;;;;;8.77;100.00;100966.28;1722728;82;21014;-87
2021/10/12 03:52:55;;;;;;;35.95;20.12;;;;;;;8.61;100.00;100960.40;1717154;82;21841;-87
2021/10/12 03:55:24;;;;;;;28.32;18.12;;;;;;;8.42;100.00;100962.78;1740232;80;21027;-89
2021/10/12 03:57:52;;;;;;;28.10;18.00;;;;;;;8.27;100.00;100966.30;1741346;81;21161;-88
2021/10/12 04:00:20;;;;;;;24.90;16.80;;;;;;;8.09;100.00;100962.57;1709643;82;21154;-87
2021/10/12 04:02:49;;;;;;;26.15;15.68;;;;;;;7.97;100.00;100967.20;1662235;84;21082;-86
2021/10/12 04:05:17;;;;;;;24.27;16.93;;;;;;;7.89;100.00;100967.16;1681414;84;21815;-87
2021/10/12 04:07:47;;;;;;;32.63;16.93;;;;;;;7.87;100.00;100965.13;1681275;84;21093;-89
2021/10/12 04:10:16;;;;;;;38.33;16.70;;;;;;;7.94;100.00;100968.66;1681349;84;21002;-86
2021/10/12 04:12:44;;;;;;;26.45;17.23;;;;;;;8.03;100.00;100970.72;1681401;83;21061;-92
2021/10/12 04:15:12;;;;;;;29.63;16.25;;;;;;;8.12;100.00;100971.48;1681323;84;21007;-92
2021/10/12 04:17:40;;;;;;;29.85;16.35;;;;;;;8.21;100.00;100969.61;1681486;83;21118;-92
2021/10/12 04:20:09;;;;;;;30.68;16.80;;;;;;;8.28;100.00;100972.69;1680554;84;21065;-92
2021/10/12 04:22:37;;;;;;;36.58;17.05;;;;;;;8.34;100.00;100972.78;1681355;83;21113;-93
2021/10/12 04:25:06;;;;;;;29.23;16.05;;;;;;;8.42;100.00;100971.86;1663388;83;21093;-93
2021/10/12 04:27:34;;;;;;;25.15;15.45;;;;;;;8.47;100.00;100967.25;1663336;85;21136;-91
2021/10/12 04:30:01;;;;;;;50.12;16.73;;;;;;;8.45;100.00;100965.64;1681593;84;21559;-91
2021/10/12 04:32:30;;;;;;;58.35;18.87;;;;;;;8.37;100.00;100964.83;1681052;84;21204;-92
2021/10/12 04:34:58;;;;;;;22.93;15.70;;;;;;;8.34;100.00;100968.89;1681709;84;21550;-92
2021/10/12 04:37:25;;;;;;;25.32;15.98;;;;;;;8.35;100.00;100967.50;1666139;84;21582;-91
2021/10/12 04:39:55;;;;;;;46.75;17.05;;;;;;;8.31;100.00;100970.36;1655900;84;22086;-92
2021/10/12 04:42:23;;;;;;;32.48;16.23;;;;;;;8.27;100.00;100975.38;1659910;84;21092;-91
2021/10/12 04:44:54;;;;;;;33.70;16.07;;;;;;;8.23;100.00;100976.03;1636685;86;21069;-91
2021/10/12 04:47:23;;;;;;;30.45;15.55;;;;;;;8.23;100.00;100973.43;1651020;85;21112;-93
2021/10/12 04:49:50;;;;;;;29.63;16.02;;;;;;;8.22;100.00;100982.14;1653998;85;21118;-92
2021/10/12 04:52:20;;;;;;;28.12;16.00;;;;;;;8.25;100.00;100983.70;1653384;85;21093;-92
2021/10/12 04:54:47;;;;;;;25.55;15.28;;;;;;;8.31;100.00;100984.19;1653187;85;21976;-92
2021/10/12 04:57:16;;;;;;;27.17;15.53;;;;;;;8.39;100.00;100981.59;1648045;85;21061;-90
2021/10/12 04:59:44;;;;;;;28.05;15.18;;;;;;;8.46;100.00;100982.41;1662691;85;21503;-92
2021/10/12 05:02:13;;;;;;;29.12;16.15;;;;;;;8.51;100.00;100973.94;1668154;82;21161;-93
2021/10/12 05:04:41;;;;;;;35.28;16.75;;;;;;;8.57;100.00;100978.38;1660357;85;21097;-93
2021/10/12 05:07:08;;;;;;;30.17;16.77;;;;;;;8.62;100.00;100970.68;1663837;83;21142;-92
2021/10/12 05:09:35;;;;;;;28.92;17.42;;;;;;;8.64;100.00;100969.28;1687740;83;21014;-92
2021/10/12 05:12:03;;;;;;;30.92;16.87;;;;;;;8.65;100.00;100966.58;1687610;83;21060;-93
2021/10/12 05:14:34;;;;;;;26.65;16.90;;;;;;;8.67;100.00;100971.22;1682487;83;21708;-93
2021/10/12 05:17:04;;;;;;;;;;;;;;;8.74;100.00;100965.20;1691338;83;21073;-92
2021/10/12 05:19:33;;;;;;;31.45;16.55;;;;;;;8.80;100.00;100967.89;1695530;83;21147;-93
2021/10/12 05:22:00;;;;;;;30.12;18.75;;;;;;;8.86;100.00;100961.00;1718319;82;21689;-92
2021/10/12 05:24:28;;;;;;;33.28;17.90;;;;;;;8.90;100.00;100959.05;1688145;83;21073;-92
2021/10/12 05:26:55;;;;;;;37.75;24.00;;;;;;;8.92;100.00;100949.41;1688129;84;21025;-90
2021/10/12 05:29:23;;;;;;;32.58;20.57;;;;;;;8.96;100.00;100955.61;1688387;83;21124;-92
2021/10/12 05:31:57;;;;;;;27.15;17.48;;;;;;;8.99;100.00;100958.48;1677181;83;21824;-93
2021/10/12 05:34:31;;;;;;;28.25;17.95;;;;;;;9.01;100.00;100956.63;1681582;82;21123;-93
2021/10/12 05:36:59;;;;;;;24.40;16.57;;;;;;;9.02;100.00;100958.74;1641587;84;21077;-93
2021/10/12 05:39:28;;;;;;;28.27;17.32;;;;;;;9.04;100.00;100955.59;1688383;83;21501;-93
2021/10/12 05:41:56;;;;;;;30.68;16.45;;;;;;;9.05;100.00;100949.47;1669829;84;21133;-94
2021/10/12 05:44:25;;;;;;;28.57;17.25;;;;;;;9.07;100.00;100949.73;1688143;83;21137;-93
2021/10/12 05:46:53;;;;;;;28.00;16.35;;;;;;;9.12;100.00;100952.86;1688215;83;21014;-93
2021/10/12 05:49:23;;;;;;;20.72;15.13;;;;;;;9.19;100.00;100959.81;1671269;83;21104;-94
2021/10/12 05:51:52;;;;;;;23.27;16.17;;;;;;;9.26;100.00;100960.23;1669025;84;21515;-92
2021/10/12 05:54:22;;;;;;;34.65;15.98;;;;;;;9.33;100.00;100957.63;1682354;83;21409;-92
2021/10/12 05:56:56;;;;;;;22.48;15.45;;;;;;;9.42;100.00;100956.19;1685600;83;21150;-92
2021/10/12 05:59:17;;;;;;;22.37;15.25;;;;;;;9.52;100.00;100956.42;1666987;83;21136;-93
2021/10/12 06:01:44;;;;;;;24.75;15.48;;;;;;;9.62;100.00;100954.89;1711440;81;22275;-94
2021/10/12 06:04:12;;;;;;;20.50;14.25;;;;;;;9.72;100.00;100950.77;1717038;81;21085;-92
2021/10/12 06:06:40;;;;;;;22.30;14.13;;;;;;;9.85;100.00;100941.67;1704389;82;21575;-93
2021/10/12 06:09:08;;;;;;;18.62;14.10;;;;;;;9.99;100.00;100942.03;1704510;82;21112;-93
2021/10/12 06:11:35;;;;;;;17.90;12.58;;;;;;;10.10;100.00;100934.34;1704471;82;21046;-93
2021/10/12 06:14:02;;;;;;;17.55;12.23;;;;;;;10.22;100.00;100933.12;1704440;82;21057;-91
2021/10/12 06:16:29;;;;;;;20.45;11.05;;;;;;;10.31;100.00;100924.68;1704413;82;21831;-92
2021/10/12 06:18:57;;;;;;;21.15;11.97;;;;;;;10.43;100.00;100926.12;1703823;82;21571;-92
2021/10/12 06:21:27;;;;;;;17.50;11.40;;;;;;;10.54;100.00;100918.37;1704009;82;21119;-93
2021/10/12 06:23:55;;;;;;;15.28;10.20;;;;;;;10.65;100.00;100921.55;1687920;82;21060;-92
2021/10/12 06:26:22;;;;;;;13.35;9.83;;;;;;;10.77;100.00;100921.15;1703971;82;21053;-93
2021/10/12 06:28:49;;;;;;;12.85;9.70;;;;;;;10.87;100.00;100924.28;1664660;84;21684;-92
2021/10/12 06:31:17;;;;;;;15.88;9.53;;;;;;;10.97;100.00;100924.94;1664896;84;21167;-94
2021/10/12 06:33:45;;;;;;;12.33;9.08;;;;;;;11.06;100.00;100922.94;1664508;84;21814;-94
2021/10/12 06:36:14;;;;;;;10.32;8.58;;;;;;;11.17;100.00;100924.80;1665007;84;21816;-93
2021/10/12 06:38:43;;;;;;;17.07;8.98;;;;;;;11.27;100.00;100921.86;1663290;84;20985;-93
2021/10/12 06:41:11;;;;;;;11.45;8.73;;;;;;;11.38;100.00;100920.24;1667878;84;21011;-92
2021/10/12 06:43:39;;;;;;;12.82;8.75;;;;;;;11.51;100.00;100914.47;1681963;83;21007;-91
2021/10/12 06:46:06;;;;;;;11.83;8.93;;;;;;;11.64;100.00;100910.02;1722737;81;21102;-92
2021/10/12 06:48:34;;;;;;;11.03;8.05;;;;;;;11.77;100.00;100909.08;1665135;84;21067;-93
2021/10/12 06:51:01;;;;;;;11.33;8.45;;;;;;;11.90;100.00;100910.29;1664616;84;21060;-92
2021/10/12 06:53:28;;;;;;;14.60;9.28;;;;;;;12.00;100.00;100909.98;1664456;84;21036;-93
2021/10/12 06:55:55;;;;;;;11.00;8.55;;;;;;;12.08;100.00;100911.98;1664874;84;21078;-92
2021/10/12 06:58:25;;;;;;;11.55;8.28;;;;;;;12.12;100.00;100910.82;1664630;84;21136;-93
2021/10/12 07:00:53;;;;;;;13.98;8.30;;;;;;;12.19;100.00;100908.55;1664642;84;21374;-92
2021/10/12 07:03:20;;;;;;;14.13;8.35;;;;;;;12.28;100.00;100911.30;1659883;85;21522;-92
2021/10/12 07:05:50;;;;;;;11.85;8.85;;;;;;;12.38;100.00;100896.23;1659760;85;21607;-91
2021/10/12 07:08:17;;;;;;;12.35;8.50;;;;;;;12.49;100.00;100904.03;1641975;85;21064;-93
2021/10/12 07:10:44;;;;;;;12.25;8.25;;;;;;;12.58;100.00;100897.23;1659479;85;21118;-91
2021/10/12 07:13:13;;;;;;;11.60;8.05;;;;;;;12.68;100.00;100890.34;1659492;85;21076;-92
2021/10/12 07:15:43;;;;;;;10.98;8.23;;;;;;;12.77;100.00;100892.70;1659796;85;21064;-92
2021/10/12 07:18:12;;;;;;;13.43;7.78;;;;;;;12.85;100.00;100883.78;1659880;85;21069;-94
2021/10/12 07:20:40;;;;;;;15.35;8.45;;;;;;;12.93;100.00;100882.68;1660110;85;21120;-92
2021/10/12 07:23:09;;;;;;;12.80;8.53;;;;;;;13.03;100.00;100880.60;1659900;85;22235;-92
2021/10/12 07:25:36;;;;;;;10.60;8.05;;;;;;;13.15;100.00;100872.23;1671427;83;21045;-93
2021/10/12 07:28:08;;;;;;;11.95;8.75;;;;;;;13.26;100.00;100872.20;1676002;83;21077;-91
2021/10/12 07:30:37;;;;;;;11.63;8.93;;;;;;;13.41;100.00;100867.52;1614325;87;21576;-92
2021/10/12 07:33:04;;;;;;;11.15;9.58;;;;;;;13.59;100.00;100867.76;1660374;84;21085;-92
2021/10/12 07:35:33;;;;;;;11.85;8.03;;;;;;;13.77;100.00;100867.98;1615520;86;21891;-92
2021/10/12 07:38:01;;;;;;;11.20;9.03;;;;;;;13.94;100.00;100870.96;1681361;84;20997;-92
2021/10/12 07:40:30;;;;;;;14.40;9.25;;;;;;;14.11;100.00;100860.34;1681352;83;21145;-93
2021/10/12 07:42:57;;;;;;;15.10;9.95;;;;;;;14.29;100.00;100861.87;1698047;83;21014;-92
2021/10/12 07:45:26;;;;;;;14.40;9.83;;;;;;;14.41;100.00;100865.20;1693907;82;20957;-92
2021/10/12 07:48:00;;;;;;;13.50;9.70;;;;;;;14.54;100.00;100866.27;1707303;82;21147;-92
2021/10/12 07:50:30;;;;;;;12.90;9.95;;;;;;;14.67;100.00;100867.67;1699294;82;21147;-90
2021/10/12 07:53:04;;;;;;;15.35;10.15;;;;;;;14.85;100.00;100862.27;1693647;82;21077;-92
2021/10/12 07:55:36;;;;;;;12.63;9.15;;;;;;;14.94;100.00;100866.69;1688927;82;21076;-92
2021/10/12 07:58:06;;;;;;;14.58;10.00;;;;;;;15.04;100.00;100861.44;1697997;82;21136;-92
2021/10/12 08:00:33;;;;;;;11.30;9.13;;;;;;;15.13;100.00;100857.48;1700961;82;21182;-93
2021/10/12 08:03:03;;;;;;;11.88;9.63;;;;;;;15.26;100.00;100851.95;1661206;84;21097;-92
2021/10/12 08:05:32;;;;;;;12.23;8.88;;;;;;;15.45;100.00;100858.95;1677098;84;21176;-91
2021/10/12 08:08:00;;;;;;;14.03;9.20;;;;;;;15.60;100.00;100857.19;1691860;82;21061;-90
2021/10/12 08:10:28;;;;;;;9.68;8.28;;;;;;;15.71;100.00;100854.41;1705587;82;21033;-91
2021/10/12 08:13:06;;;;;;;13.62;11.20;;;;;;;15.82;100.00;100848.15;1679245;84;21078;-90
2021/10/12 08:15:41;;;;;;;14.50;9.68;;;;;;;15.95;100.00;100847.86;1695477;82;21094;-92
2021/10/12 08:18:07;;;;;;;11.50;8.48;;;;;;;16.08;100.00;100837.02;1698687;82;21068;-91
2021/10/12 08:20:35;;;;;;;11.45;8.48;;;;;;;16.13;100.00;100836.58;1705562;82;21085;-92
2021/10/12 08:23:03;;;;;;;11.15;8.30;;;;;;;16.16;100.00;100831.02;1684861;82;20962;-91
2021/10/12 08:25:31;;;;;;;11.33;8.58;;;;;;;16.23;100.00;100828.14;1680897;83;21142;-92
2021/10/12 08:27:58;;;;;;;11.85;7.50;;;;;;;16.35;100.00;100823.03;1677089;84;21076;-90
2021/10/12 08:30:25;;;;;;;12.53;7.90;;;;;;;16.50;100.00;100819.89;1677153;84;21013;-93
2021/10/12 08:32:54;;;;;;;11.40;7.97;;;;;;;16.63;100.00;100817.70;1657498;85;21096;-90
2021/10/12 08:35:22;;;;;;;15.00;8.90;;;;;;;16.76;100.00;100816.02;1691819;82;21100;-91
2021/10/12 08:37:49;;;;;;;17.60;12.18;;;;;;;16.89;100.00;100815.63;1699354;82;21176;-95
2021/10/12 08:40:17;;;;;;;19.23;14.35;;;;;;;17.00;100.00;100814.13;1677120;84;21040;-96
2021/10/12 08:42:53;;;;;;;15.85;12.05;;;;;;;17.09;100.00;100816.81;1676916;84;20998;-95
2021/10/12 08:45:23;;;;;;;12.58;8.75;;;;;;;17.15;100.00;100801.22;1654638;84;21585;-96
2021/10/12 08:47:54;;;;;;;12.90;8.78;;;;;;;17.25;100.00;100802.45;1680349;83;22018;-95
2021/10/12 08:50:24;;;;;;;11.12;7.78;;;;;;;17.35;100.00;100793.14;1680435;84;21104;-94
2021/10/12 08:52:53;;;;;;;11.53;7.80;;;;;;;17.40;100.00;100791.36;1657047;85;21033;-93
2021/10/12 08:55:20;;;;;;;13.35;7.92;;;;;;;17.39;100.00;100784.44;1677160;84;21097;-94
2021/10/12 08:57:47;;;;;;;14.35;8.60;;;;;;;17.43;100.00;100783.13;1677016;84;21301;-96
2021/10/12 09:00:18;;;;;;;11.48;7.75;;;;;;;17.54;100.00;100783.38;1656793;84;21049;-95
2021/10/12 09:06:03;;;;;;;14.63;8.08;;;;;;;17.82;100.00;100770.83;1676887;84;21088;-92
2021/10/12 09:08:39;;;;;;;12.43;7.90;;;;;;;17.99;100.00;100764.33;1676979;84;21573;-92
2021/10/12 09:11:24;;;;;;;11.73;8.25;;;;;;;18.06;100.00;100761.38;1654657;84;21092;-92
2021/10/12 09:14:11;;;;;;;10.43;7.25;;;;;;;18.13;100.00;100758.42;1676706;84;21104;-92
2021/10/12 09:16:43;;;;;;;12.30;7.62;;;;;;;18.23;100.00;100751.68;1676591;84;21665;-92
2021/10/12 09:19:16;;;;;;;10.38;7.83;;;;;;;18.28;97.51;100744.10;1631622;84;21543;-92
2021/10/12 09:21:52;;;;;;;11.08;7.55;;;;;;;18.30;98.12;100744.77;1676928;84;21048;-92
2021/10/12 09:24:23;;;;;;;7.72;6.95;;;;;;;18.36;99.78;100731.44;1711208;82;21586;-91
2021/10/12 09:27:02;;;;;;;76.30;44.48;;;;;;;18.44;100.00;100726.98;1676496;83;21083;-92
2021/10/12 09:32:00;;;;;;;8.10;7.17;;;;;;;18.65;94.72;100710.33;1698212;82;21093;-92
2021/10/12 09:34:30;;;;;;;9.78;6.80;;;;;;;18.69;90.77;100703.75;1672350;85;21071;-90
2021/10/12 09:36:59;;;;;;;7.95;6.75;;;;;;;18.72;90.78;100699.44;1711879;82;21041;-89
2021/10/12 09:39:42;;;;;;;7.58;6.37;;;;;;;18.76;90.31;100696.81;1671914;83;20992;-89
2021/10/12 09:42:12;;;;;;;8.35;6.87;;;;;;;18.83;89.21;100689.88;1689079;83;21137;-92
2021/10/12 09:44:58;;;;;;;8.95;6.92;;;;;;;18.83;84.95;100689.06;1672273;84;22316;-93
2021/10/12 09:47:29;;;;;;;10.85;6.80;;;;;;;18.76;86.78;100685.76;1687582;82;21502;-93
2021/10/12 09:50:14;;;;;;;11.83;6.70;;;;;;;18.79;89.91;100664.81;1692943;83;21045;-91
2021/10/12 09:52:45;;;;;;;7.92;5.95;;;;;;;18.79;89.91;100664.81;1716020;82;21097;-90
2021/10/12 09:55:13;;;;;;;8.78;6.53;;;;;;;18.95;86.14;100665.31;1737321;81;21178;-91
2021/10/12 09:57:44;;;;;;;7.30;6.42;;;;;;;19.06;84.81;100662.80;1741118;81;21088;-93
2021/10/12 10:00:13;;;;;;;8.85;6.53;;;;;;;19.15;80.33;100659.14;1700473;83;21016;-92
2021/10/12 10:02:43;;;;;;;7.42;6.25;;;;;;;19.25;81.64;100656.80;1738148;81;21038;-93
2021/10/12 10:05:12;;;;;;;8.03;6.55;;;;;;;19.37;77.32;100656.73;1687419;83;21074;-90
2021/10/12 10:07:47;;;;;;;8.83;6.30;;;;;;;19.45;74.88;100644.00;1713018;82;21749;-93
2021/10/12 10:10:16;;;;;;;10.03;7.15;;;;;;;19.50;74.35;100650.41;1666646;84;21097;-96
2021/10/12 10:12:45;;;;;;;8.63;5.95;;;;;;;19.58;75.36;100647.41;1626131;86;20992;-92
2021/10/12 10:15:13;;;;;;;6.30;5.70;;;;;;;19.65;71.30;100642.55;1709782;82;21058;-89
2021/10/12 10:17:44;;;;;;;7.60;6.67;;;;;;;19.75;70.43;100643.64;1707243;82;21394;-92
2021/10/12 10:20:15;;;;;;;8.45;6.10;;;;;;;19.82;68.81;100637.17;1678898;83;21155;-91
2021/10/12 10:25:34;;;;;;;8.95;7.33;;;;;;;19.73;68.19;100631.13;1681200;84;21332;-91
2021/10/12 10:28:21;;;;;;;8.58;6.30;;;;;;;19.66;69.65;100645.52;1670839;83;21107;-93
2021/10/12 10:30:59;;;;;;;7.75;6.00;;;;;;;19.67;69.39;100640.57;1709503;82;20998;-92
2021/10/12 10:33:37;;;;;;;7.00;6.30;;;;;;;19.71;68.76;100631.80;1710125;82;21966;-93
2021/10/12 10:36:10;;;;;;;8.88;6.70;;;;;;;19.77;67.55;100638.20;1692282;83;21038;-93
2021/10/12 10:38:45;;;;;;;11.48;6.70;;;;;;;19.76;66.25;100633.91;1699279;83;21089;-93
2021/10/12 10:41:19;;;;;;;7.50;6.80;;;;;;;19.69;67.53;100627.18;1682559;84;21124;-94
2021/10/12 10:43:54;;;;;;;6.65;5.97;;;;;;;19.61;66.40;100616.66;1699265;83;22329;-92
2021/10/12 10:46:36;;;;;;;8.73;6.50;;;;;;;19.57;69.87;100609.59;1698996;83;21135;-93
2021/10/12 10:49:25;;;;;;;8.75;6.58;;;;;;;19.60;70.96;100610.58;1682832;84;21568;-93
2021/10/12 10:52:06;;;;;;;6.53;5.92;;;;;;;19.69;70.92;100616.61;1682462;83;21121;-94
2021/10/12 10:54:49;;;;;;;7.05;5.83;;;;;;;19.77;66.02;100605.98;1662580;84;21062;-91
2021/10/12 10:57:21;;;;;;;6.12;5.53;;;;;;;19.79;64.18;100604.52;1707347;82;21112;-94
2021/10/12 11:00:09;;;;;;;7.78;5.97;;;;;;;19.72;64.21;100608.34;1710091;83;21130;-94
2021/10/12 11:02:48;;;;;;;10.80;6.55;;;;;;;19.55;64.45;100604.49;1709749;82;21108;-93
2021/10/12 11:05:33;;;;;;;9.00;7.20;;;;;;;19.35;64.33;100608.55;1705950;82;21575;-93
2021/10/12 11:08:15;;;;;;;10.05;8.28;;;;;;;19.16;67.05;100605.37;1705180;82;20993;-93
2021/10/12 11:10:47;;;;;;;10.55;7.65;;;;;;;19.06;71.64;100600.31;1668127;84;21129;-93
2021/10/12 11:13:41;;;;;;;8.40;6.78;;;;;;;19.06;73.63;100591.55;1708041;81;21190;-94
2021/10/12 11:16:13;;;;;;;8.88;6.15;;;;;;;19.12;78.12;100585.58;1694349;84;21088;-92
2021/10/12 11:18:45;;;;;;;9.78;6.60;;;;;;;19.28;75.75;100582.05;1681850;83;20970;-95
2021/10/12 11:21:16;;;;;;;7.20;6.37;;;;;;;19.42;72.19;100581.81;1698824;82;20993;-94
2021/10/12 11:23:54;;;;;;;8.68;6.00;;;;;;;19.52;71.37;100571.82;1676323;83;21096;-94
2021/10/12 11:26:27;;;;;;;9.63;5.60;;;;;;;19.62;72.71;100578.22;1676241;84;21838;-93
2021/10/12 11:28:59;;;;;;;8.10;5.92;;;;;;;19.71;65.89;100572.36;1661560;83;20989;-92
2021/10/12 11:31:30;;;;;;;9.50;6.22;;;;;;;19.75;62.92;100582.88;1723210;81;21053;-94
2021/10/12 11:34:01;;;;;;;10.28;7.62;;;;;;;19.80;64.43;100577.91;1723262;81;21079;-95